createdAt,value
2019-01-04T00:30:00.272Z,70.25
2019-01-04T00:32:30.954Z,70.06
2019-01-04T00:35:01.985Z,69.66
2019-01-04T00:37:32.503Z,69.90
2019-01-04T00:40:04.621Z,69.16
2019-01-04T00:42:35.117Z,69.13
2019-01-04T00:45:07.729Z,68.32
2019-01-04T00:47:38.613Z,67.26
2019-01-04T00:50:10.054Z,66.90
2019-01-04T00:52:40.751Z,66.80
2019-01-04T00:55:28.363Z,66.59
2019-01-04T00:58:33.237Z,65.07
2019-01-04T01:01:56.615Z,64.33
2019-01-04T01:05:02.568Z,63.57
2019-01-04T01:07:58.594Z,63.12
2019-01-04T01:10:55.456Z,62.64
2019-01-04T01:14:12.877Z,61.81
2019-01-04T01:17:12.699Z,62.19
2019-01-04T01:20:22.646Z,61.31
2019-01-04T01:23:24.519Z,61.51
2019-01-04T01:26:37.840Z,61.09
2019-01-04T01:29:49.637Z,60.89
2019-01-04T01:33:12.496Z,61.04
2019-01-04T01:36:23.487Z,60.21
2019-01-04T01:39:22.590Z,60.58
2019-01-04T01:42:54.766Z,59.62
2019-01-04T01:46:13.115Z,58.97
2019-01-04T01:49:14.253Z,59.37
2019-01-04T01:51:52.691Z,59.52
2019-01-04T01:54:23.223Z,60.16
2019-01-04T01:56:54.992Z,60.28
2019-01-04T01:59:25.755Z,59.95
2019-01-04T02:01:56.440Z,60.03
2019-01-04T02:04:28.061Z,60.29
2019-01-04T02:06:58.453Z,60.57
2019-01-04T02:09:29.135Z,60.53
2019-01-04T02:11:59.894Z,60.63
2019-01-04T02:14:30.633Z,60.16
2019-01-04T02:17:01.161Z,60.38
2019-01-04T02:19:32.071Z,59.92
2019-01-04T02:22:02.937Z,59.74
2019-01-04T02:24:33.770Z,59.92
2019-01-04T02:27:04.442Z,60.05
2019-01-04T02:50:27.452Z,60.45
2019-01-04T02:52:58.058Z,60.70
2019-01-04T02:55:28.891Z,60.90
2019-01-04T02:57:59.411Z,61.44
2019-01-04T03:00:30.030Z,61.93
2019-01-04T03:03:00.793Z,62.13
2019-01-04T03:05:31.706Z,62.35
2019-01-04T03:08:02.535Z,62.55
2019-01-04T03:10:33.381Z,62.45
2019-01-04T03:13:04.299Z,62.77
2019-01-04T03:15:35.084Z,63.36
2019-01-04T03:18:05.782Z,63.31
2019-01-04T03:20:36.435Z,63.15
2019-01-04T03:23:07.138Z,63.18
2019-01-04T03:25:37.925Z,62.82
2019-01-04T03:28:08.659Z,63.26
2019-01-04T03:30:39.397Z,62.97
2019-01-04T03:33:10.397Z,62.99
2019-01-04T03:35:41.362Z,62.91
2019-01-04T03:38:11.763Z,62.55
2019-01-04T03:40:42.419Z,62.13
2019-01-04T03:43:13.476Z,62.35
2019-01-04T03:45:46.888Z,62.09
2019-01-04T03:48:17.752Z,62.14
2019-01-04T03:50:48.358Z,62.35
2019-01-04T03:53:18.725Z,61.93
2019-01-04T03:55:49.256Z,62.40
2019-01-04T03:58:20.469Z,62.32
2019-01-04T04:00:52.274Z,62.33
2019-01-04T04:03:22.916Z,61.73
2019-01-04T04:05:53.359Z,62.00
2019-01-04T04:08:24.045Z,61.68
2019-01-04T04:10:55.696Z,61.20
2019-01-04T04:13:26.292Z,61.21
2019-01-04T04:15:57.448Z,60.69
2019-01-04T04:18:28.032Z,60.74
2019-01-04T04:20:58.962Z,61.25
2019-01-04T04:23:29.578Z,61.12
2019-01-04T04:26:00.342Z,60.98
2019-01-04T04:28:30.804Z,60.93
2019-01-04T04:31:01.979Z,60.88
2019-01-04T04:33:32.911Z,60.58
2019-01-04T04:36:03.904Z,59.99
2019-01-04T04:38:34.634Z,59.73
2019-01-04T04:41:05.350Z,59.04
2019-01-04T04:43:35.854Z,59.06
2019-01-04T04:46:06.751Z,58.87
2019-01-04T04:48:37.539Z,59.03
2019-01-04T04:51:08.144Z,58.20
2019-01-04T04:53:38.664Z,58.85
2019-01-04T04:56:09.535Z,58.43
2019-01-04T04:58:40.105Z,58.14
2019-01-04T05:01:10.586Z,57.34
2019-01-04T05:03:41.726Z,57.57
2019-01-04T05:06:12.285Z,56.89
2019-01-04T05:08:43.502Z,57.26
2019-01-04T05:11:14.188Z,57.19
2019-01-04T05:13:45.422Z,56.94
2019-01-04T05:16:16.070Z,56.69
2019-01-04T05:18:46.864Z,56.39
2019-01-04T05:21:17.559Z,56.48
2019-01-04T05:23:48.084Z,56.32
2019-01-04T05:26:18.704Z,56.18
2019-01-04T05:28:49.459Z,56.19
2019-01-04T05:31:23.215Z,55.79
2019-01-04T05:33:53.978Z,55.77
2019-01-04T05:36:24.871Z,56.37
2019-01-04T05:38:55.614Z,55.84
2019-01-04T05:41:26.348Z,55.77
2019-01-04T05:43:56.963Z,55.82
2019-01-04T05:46:27.557Z,55.89
2019-01-04T05:48:58.286Z,56.00
2019-01-04T05:51:29.073Z,56.01
2019-01-04T05:53:59.705Z,56.19
2019-01-04T05:56:30.313Z,55.74
2019-01-04T05:59:00.881Z,55.90
2019-01-04T06:01:31.757Z,55.94
2019-01-04T06:04:02.639Z,56.12
2019-01-04T06:06:34.864Z,56.44
2019-01-04T06:09:06.788Z,56.35
2019-01-04T06:11:37.776Z,56.66
2019-01-04T06:14:09.026Z,56.97
2019-01-04T06:16:39.600Z,57.01
2019-01-04T06:19:10.303Z,57.61
2019-01-04T06:21:41.110Z,57.32
2019-01-04T06:24:15.415Z,56.54
2019-01-04T06:26:46.749Z,55.61
2019-01-04T06:29:18.715Z,55.33
2019-01-04T06:31:49.408Z,55.75
2019-01-04T06:34:20.134Z,55.80
2019-01-04T06:36:50.892Z,56.72
2019-01-04T06:39:21.766Z,57.43
2019-01-04T06:41:52.417Z,57.36
2019-01-04T06:44:23.098Z,57.27
2019-01-04T06:47:31.107Z,57.44
2019-01-04T06:50:01.767Z,56.84
2019-01-04T06:52:32.410Z,57.10
2019-01-04T06:56:01.325Z,56.82
2019-01-04T06:58:32.081Z,57.12
2019-01-04T07:01:02.760Z,57.98
2019-01-04T07:03:34.128Z,58.38
2019-01-04T07:06:04.933Z,58.05
2019-01-04T07:08:35.589Z,57.98
2019-01-04T07:11:06.480Z,57.31
2019-01-04T07:13:37.740Z,57.44
2019-01-04T07:16:08.425Z,57.61
2019-01-04T07:18:39.072Z,57.16
2019-01-04T07:21:09.882Z,56.00
2019-01-04T07:23:40.414Z,55.83
2019-01-04T07:26:11.177Z,56.19
2019-01-04T07:28:41.820Z,56.33
2019-01-04T07:31:12.866Z,56.84
2019-01-04T07:33:43.804Z,57.47
2019-01-04T07:36:14.349Z,57.92
2019-01-04T07:38:45.120Z,58.34
2019-01-04T07:41:15.992Z,57.91
2019-01-04T07:43:46.619Z,57.68
2019-01-04T07:46:17.370Z,57.98
2019-01-04T07:48:49.186Z,57.77
2019-01-04T07:51:19.807Z,57.48
2019-01-04T07:53:50.460Z,57.48
2019-01-04T08:43:51.940Z,53.10
2019-01-04T08:46:22.572Z,53.21
2019-01-04T08:48:54.683Z,52.44
2019-01-04T08:51:25.308Z,52.66
2019-01-04T08:54:00.689Z,52.67
2019-01-04T08:56:33.674Z,52.46
2019-01-04T08:59:07.365Z,52.70
2019-01-04T09:01:40.645Z,51.90
2019-01-04T09:04:11.677Z,51.65
2019-01-04T09:06:42.676Z,51.94
2019-01-04T09:09:14.254Z,52.15
2019-01-04T09:11:44.869Z,51.50
2019-01-04T09:14:15.313Z,51.75
2019-01-04T09:16:46.177Z,51.05
2019-01-04T09:19:17.943Z,51.20
2019-01-04T09:21:48.804Z,51.54
2019-01-04T09:24:20.131Z,51.56
2019-01-04T09:26:50.595Z,51.46
2019-01-04T09:29:21.885Z,50.32
2019-01-04T09:31:52.469Z,50.37
2019-01-04T09:34:25.011Z,49.82
2019-01-04T09:36:55.891Z,49.44
2019-01-04T09:39:26.727Z,49.20
2019-01-04T09:42:07.436Z,49.63
2019-01-04T09:44:38.375Z,48.83
2019-01-04T09:47:08.862Z,48.70
2019-01-04T09:49:40.951Z,47.82
2019-01-04T09:52:11.432Z,47.81
2019-01-04T09:54:42.312Z,46.75
2019-01-04T09:57:12.945Z,46.36
2019-01-04T09:59:43.542Z,46.23
2019-01-04T10:02:14.103Z,45.83
2019-01-04T10:04:44.671Z,46.24
2019-01-04T10:07:15.300Z,46.27
2019-01-04T10:09:45.760Z,46.23
2019-01-04T10:12:16.111Z,45.79
2019-01-04T10:14:47.225Z,45.64
2019-01-04T10:17:17.845Z,45.95
2019-01-04T10:19:48.114Z,46.39
2019-01-04T10:22:19.676Z,45.57
2019-01-04T10:24:49.997Z,46.36
2019-01-04T10:27:20.233Z,46.91
2019-01-04T10:29:51.490Z,46.36
2019-01-04T10:32:21.824Z,46.46
2019-01-04T10:34:54.797Z,46.54
2019-01-04T10:37:25.589Z,47.12
2019-01-04T10:39:55.824Z,46.62
2019-01-04T10:42:26.403Z,46.89
2019-01-04T10:44:57.477Z,47.12
2019-01-04T10:47:27.786Z,46.95
2019-01-04T10:49:58.400Z,46.87
2019-01-04T10:52:29.432Z,47.59
2019-01-04T10:55:00.159Z,46.89
2019-01-04T10:57:30.782Z,47.28
2019-01-04T11:00:01.607Z,46.30
2019-01-04T11:02:31.843Z,46.96
2019-01-04T11:05:02.765Z,46.81
2019-01-04T11:07:33.383Z,46.89
2019-01-04T11:10:03.775Z,47.54
2019-01-04T11:12:34.665Z,48.20
2019-01-04T11:15:05.217Z,49.47
2019-01-04T11:17:35.670Z,49.43
2019-01-04T11:20:06.266Z,48.65
2019-01-04T11:23:10.906Z,48.16
2019-01-04T11:26:38.053Z,46.70
2019-01-04T11:29:46.125Z,46.68
2019-01-04T11:32:31.746Z,46.37
2019-01-04T11:35:28.826Z,46.16
2019-01-04T11:38:22.513Z,46.42
2019-01-04T11:41:31.724Z,46.69
2019-01-04T11:44:21.094Z,46.62
2019-01-04T11:47:22.565Z,46.29
2019-01-04T11:50:19.218Z,46.52
2019-01-04T11:52:54.580Z,46.48
2019-01-04T11:55:27.847Z,46.03
2019-01-04T11:57:58.418Z,45.80
2019-01-04T12:00:28.596Z,45.94
2019-01-04T12:02:58.908Z,46.74
2019-01-04T12:05:29.356Z,46.96
2019-01-04T12:07:59.697Z,47.07
2019-01-04T12:10:30.947Z,47.30
2019-01-04T12:13:01.632Z,47.52
2019-01-04T12:15:32.407Z,47.55
2019-01-04T12:18:02.654Z,47.22
2019-01-04T12:20:33.393Z,47.27
2019-01-04T12:23:04.027Z,47.59
2019-01-04T12:25:34.568Z,47.96
2019-01-04T12:28:05.350Z,47.86
2019-01-04T12:30:35.654Z,48.00
2019-01-04T12:33:06.307Z,47.98
2019-01-04T12:35:38.452Z,48.01
2019-01-04T12:38:09.138Z,48.38
2019-01-04T12:40:40.262Z,48.72
2019-01-04T12:43:10.848Z,48.82
2019-01-04T12:45:41.417Z,49.33
2019-01-04T12:48:11.872Z,48.80
2019-01-04T12:50:58.468Z,48.75
2019-01-04T12:53:28.858Z,48.29
2019-01-04T12:55:59.286Z,48.76
2019-01-04T12:58:30.084Z,48.69
2019-01-04T13:01:01.083Z,48.87
2019-01-04T13:03:33.391Z,48.73
2019-01-04T13:06:04.904Z,48.91
2019-01-04T13:08:35.316Z,48.85
2019-01-04T13:11:05.728Z,48.83
2019-01-04T13:13:36.318Z,48.71
2019-01-04T13:16:06.759Z,48.33
2019-01-04T13:18:37.166Z,47.89
2019-01-04T13:21:07.915Z,48.23
2019-01-04T13:23:38.233Z,48.65
2019-01-04T13:26:08.629Z,48.37
2019-01-04T13:28:38.983Z,47.51
2019-01-04T13:31:09.184Z,47.72
2019-01-04T13:33:39.520Z,47.74
2019-01-04T13:36:11.206Z,47.90
2019-01-04T13:38:41.588Z,48.35
2019-01-04T13:41:12.056Z,48.28
2019-01-04T13:43:42.846Z,47.65
2019-01-04T13:46:15.863Z,48.00
2019-01-04T13:48:46.177Z,48.07
2019-01-04T13:51:17.020Z,48.20
2019-01-04T13:53:47.222Z,48.39
2019-01-04T13:56:17.537Z,48.31
2019-01-04T13:58:49.801Z,48.60
2019-01-04T14:01:20.157Z,48.51
2019-01-04T14:03:50.500Z,48.63
2019-01-04T14:06:25.307Z,48.95
2019-01-04T14:08:57.073Z,48.99
2019-01-04T14:11:27.400Z,49.30
2019-01-04T14:13:57.968Z,49.67
2019-01-04T14:16:28.395Z,49.70
2019-01-04T14:18:58.600Z,49.73
2019-01-04T14:21:28.952Z,49.99
2019-01-04T14:23:59.561Z,50.15
2019-01-04T14:26:29.815Z,50.42
2019-01-04T14:29:00.708Z,50.57
2019-01-04T14:31:31.730Z,50.93
2019-01-04T14:34:02.193Z,50.69
2019-01-04T14:36:33.316Z,50.49
2019-01-04T14:39:04.244Z,51.00
2019-01-04T14:41:34.493Z,51.33
2019-01-04T14:44:05.058Z,51.50
2019-01-04T14:46:35.564Z,51.84
2019-01-04T14:49:06.097Z,52.13
2019-01-04T14:51:38.467Z,52.31
2019-01-04T14:54:08.814Z,52.51
2019-01-04T14:56:41.046Z,52.62
2019-01-04T14:59:11.586Z,52.85
2019-01-04T15:01:41.972Z,53.10
2019-01-04T15:04:15.141Z,53.36
2019-01-04T15:06:46.229Z,53.59
2019-01-04T15:09:16.710Z,53.64
2019-01-04T15:11:47.500Z,53.72
2019-01-04T15:14:17.965Z,53.84
2019-01-04T15:16:48.268Z,54.00
2019-01-04T15:19:18.605Z,53.96
2019-01-04T15:21:49.034Z,54.02
2019-01-04T15:24:20.096Z,54.27
2019-01-04T15:26:50.819Z,54.23
2019-01-04T15:29:21.485Z,54.37
2019-01-04T15:31:51.999Z,54.78
2019-01-04T15:34:22.292Z,55.00
2019-01-04T15:36:54.373Z,55.40
2019-01-04T15:39:26.282Z,56.47
2019-01-04T15:41:56.613Z,56.37
2019-01-04T15:44:27.180Z,55.71
2019-01-04T15:46:57.395Z,55.32
2019-01-04T15:49:27.811Z,55.49
2019-01-04T15:51:58.153Z,56.40
2019-01-04T15:54:29.609Z,56.65
2019-01-04T15:57:01.646Z,56.63
2019-01-04T15:59:33.721Z,56.71
2019-01-04T16:02:05.171Z,56.82
2019-01-04T16:04:36.068Z,56.84
2019-01-04T16:07:07.422Z,57.04
2019-01-04T16:09:37.626Z,56.92
2019-01-04T16:12:08.388Z,57.35
2019-01-04T16:14:38.932Z,57.20
2019-01-04T16:17:12.260Z,57.65
2019-01-04T16:19:42.083Z,57.96
2019-01-04T16:22:12.664Z,57.96
2019-01-04T16:24:43.444Z,57.39
2019-01-04T16:27:13.868Z,56.39
2019-01-04T16:29:44.938Z,56.43
2019-01-04T16:32:15.615Z,56.68
2019-01-04T16:34:46.130Z,56.88
2019-01-04T16:37:17.271Z,58.25
2019-01-04T16:39:47.578Z,62.00
2019-01-04T16:42:17.947Z,60.00
2019-01-04T16:44:49.004Z,59.72
2019-01-04T16:47:19.239Z,59.47
2019-01-04T16:49:49.804Z,59.01
2019-01-04T16:52:22.720Z,59.07
2019-01-04T16:54:53.125Z,58.77
2019-01-04T16:57:23.780Z,58.92
2019-01-04T16:59:55.092Z,59.21
2019-01-04T17:02:26.806Z,59.51
2019-01-04T17:04:57.186Z,59.58
2019-01-04T17:07:27.841Z,59.46
2019-01-04T17:09:58.141Z,59.26
2019-01-04T17:12:28.764Z,59.30
2019-01-04T17:15:00.087Z,59.23
2019-01-04T17:17:30.896Z,59.11
2019-01-04T17:20:01.474Z,60.24
2019-01-04T17:22:33.099Z,61.79
2019-01-04T17:25:03.268Z,61.23
2019-01-04T17:27:33.602Z,61.05
2019-01-04T17:30:06.781Z,60.78
2019-01-04T17:32:37.047Z,60.70
2019-01-04T17:35:07.628Z,60.80
2019-01-04T17:37:38.200Z,60.62
2019-01-04T17:40:09.907Z,60.83
2019-01-04T17:42:40.149Z,60.67
2019-01-04T17:45:10.948Z,60.57
2019-01-04T17:47:41.405Z,60.31
2019-01-04T17:50:12.362Z,60.66
2019-01-04T17:52:42.960Z,59.78
2019-01-04T17:55:13.430Z,59.45
2019-01-04T17:57:43.746Z,59.65
2019-01-04T18:00:15.068Z,59.64
2019-01-04T18:02:45.723Z,59.46
2019-01-04T18:05:16.664Z,61.31
2019-01-04T18:07:47.283Z,61.67
2019-01-04T18:10:17.789Z,60.94
2019-01-04T18:12:48.340Z,61.09
2019-01-04T18:15:19.535Z,61.01
2019-01-04T18:17:51.644Z,60.97
2019-01-04T18:20:22.459Z,60.71
2019-01-04T18:22:52.951Z,60.48
2019-01-04T18:25:23.676Z,60.60
2019-01-04T18:27:54.420Z,60.67
2019-01-04T18:30:25.065Z,60.76
2019-01-04T18:32:56.328Z,60.31
2019-01-04T18:35:27.096Z,60.52
2019-01-04T18:37:57.734Z,60.53
2019-01-04T18:40:30.829Z,59.99
2019-01-04T18:43:01.292Z,59.83
2019-01-04T18:45:31.907Z,60.35
2019-01-04T18:48:02.572Z,62.00
2019-01-04T18:50:33.394Z,62.10
2019-01-04T18:53:03.984Z,61.94
2019-01-04T18:55:34.599Z,61.91
2019-01-04T18:58:05.148Z,61.92
2019-01-04T19:00:36.641Z,61.92
2019-01-04T19:03:07.196Z,61.97
2019-01-04T19:05:37.691Z,61.87
2019-01-04T19:08:08.166Z,61.79
2019-01-04T19:10:38.566Z,61.62
2019-01-04T19:13:09.542Z,61.60
2019-01-04T19:15:41.340Z,61.26
2019-01-04T19:18:12.147Z,61.38
2019-01-04T19:20:42.817Z,60.92
2019-01-04T19:23:13.949Z,60.41
2019-01-04T19:25:44.619Z,60.94
2019-01-04T19:28:15.554Z,60.96
2019-01-04T19:30:46.452Z,62.08
2019-01-04T19:33:17.378Z,62.38
2019-01-04T19:35:48.350Z,61.61
2019-01-04T19:38:19.140Z,61.46
2019-01-04T19:40:49.897Z,60.94
2019-01-04T19:43:20.599Z,60.66
2019-01-04T19:45:51.380Z,60.76
2019-01-04T19:48:22.066Z,60.55
2019-01-04T19:50:53.159Z,60.28
2019-01-04T19:53:23.801Z,60.36
2019-01-04T19:55:54.404Z,60.00
2019-01-04T19:58:25.011Z,60.01
2019-01-04T20:00:55.739Z,59.96
2019-01-04T20:03:26.608Z,60.22
2019-01-04T20:06:51.061Z,60.15
2019-01-04T20:10:11.403Z,60.39
2019-01-04T20:13:46.533Z,60.42
2019-01-04T20:16:51.047Z,61.26
2019-01-04T20:19:55.661Z,61.22
2019-01-04T20:22:45.131Z,61.50
2019-01-04T20:25:46.386Z,61.59
2019-01-04T20:28:31.250Z,61.78
2019-01-04T20:31:26.468Z,61.82
2019-01-04T20:34:14.707Z,61.92
2019-01-04T20:37:07.156Z,61.83
2019-01-04T20:40:11.787Z,62.00
2019-01-04T20:43:00.131Z,61.91
2019-01-04T20:45:48.478Z,61.89
2019-01-04T20:48:37.647Z,62.11
2019-01-04T20:51:27.119Z,62.11
2019-01-04T20:54:15.412Z,62.30
2019-01-04T20:57:08.531Z,62.84
2019-01-04T20:59:57.736Z,63.47
2019-01-04T21:02:53.113Z,63.36
2019-01-04T21:05:48.423Z,63.45
2019-01-04T21:08:44.037Z,63.52
2019-01-04T21:11:32.498Z,63.69
2019-01-04T21:14:25.138Z,64.01
2019-01-04T21:17:16.151Z,64.09
2019-01-04T21:20:14.530Z,64.03
2019-01-04T21:23:13.429Z,64.44
2019-01-04T21:26:12.320Z,64.00
2019-01-04T21:29:04.669Z,64.62
2019-01-04T21:31:49.945Z,64.12
2019-01-04T21:34:38.084Z,64.49
2019-01-04T21:37:26.228Z,64.89
2019-01-04T21:40:14.885Z,65.25
2019-01-04T21:43:14.084Z,65.69
2019-01-04T21:46:03.566Z,66.02
2019-01-04T21:49:02.247Z,66.27
2019-01-04T21:51:51.439Z,66.33
2019-01-04T21:54:45.257Z,66.05
2019-01-04T21:57:50.955Z,65.91
2019-01-04T22:00:47.019Z,66.28
2019-01-04T22:03:46.595Z,66.39
2019-01-04T22:06:42.013Z,66.44
2019-01-04T22:09:37.325Z,66.90
2019-01-04T22:12:26.394Z,67.15
2019-01-04T22:15:18.528Z,67.30
2019-01-04T22:18:21.518Z,67.45
2019-01-04T22:21:17.166Z,67.47
2019-01-04T22:24:09.471Z,67.59
2019-01-04T22:26:50.245Z,67.62
2019-01-04T22:29:32.654Z,67.40
2019-01-04T22:32:28.263Z,67.48
2019-01-04T22:35:27.298Z,67.36
2019-01-04T22:38:17.566Z,67.27
2019-01-04T22:41:06.119Z,67.11
2019-01-04T22:44:04.808Z,66.77
2019-01-04T22:46:57.052Z,67.00
2019-01-04T22:49:45.299Z,67.32
2019-01-04T22:52:34.567Z,67.50
2019-01-04T22:55:39.607Z,67.45
2019-01-04T22:58:27.765Z,67.53
2019-01-04T23:01:20.599Z,67.30
2019-01-04T23:04:24.176Z,67.10
2019-01-04T23:07:13.469Z,67.35
2019-01-04T23:10:00.201Z,67.94
2019-01-04T23:12:49.967Z,67.97
2019-01-04T23:15:48.445Z,68.13
2019-01-04T23:18:38.029Z,68.52
2019-01-04T23:22:01.504Z,68.70
2019-01-04T23:24:50.880Z,68.59
2019-01-04T23:27:39.119Z,69.00
2019-01-04T23:30:29.775Z,69.11
2019-01-04T23:33:17.969Z,70.35
2019-01-04T23:36:10.212Z,70.40
2019-01-04T23:39:06.231Z,70.26
2019-01-04T23:41:54.277Z,70.37
2019-01-04T23:44:45.598Z,70.30
2019-01-04T23:47:41.927Z,70.03
2019-01-04T23:50:38.488Z,70.56
2019-01-04T23:53:27.126Z,70.53
2019-01-04T23:56:28.991Z,70.54
2019-01-04T23:59:18.779Z,70.32
